sensor_id;sensor_type;location;lat;lon;timestamp;P1;durP1;ratioP1;P2;durP2;ratioP2
32445;SDS011;18899;50.748;7.102;2023-06-22T00:02:08;9.60;;;5.50;;
32445;SDS011;18899;50.748;7.102;2023-06-22T00:04:33;13.02;;;6.63;;
32445;SDS011;18899;50.748;7.102;2023-06-22T00:06:59;14.52;;;6.78;;
32445;SDS011;18899;50.748;7.102;2023-06-22T00:09:24;9.93;;;6.47;;
32445;SDS011;18899;50.748;7.102;2023-06-22T00:11:50;13.50;;;6.38;;
32445;SDS011;18899;50.748;7.102;2023-06-22T00:14:15;12.75;;;6.20;;
32445;SDS011;18899;50.748;7.102;2023-06-22T00:16:41;8.70;;;5.93;;
32445;SDS011;18899;50.748;7.102;2023-06-22T00:19:07;12.93;;;6.80;;
32445;SDS011;18899;50.748;7.102;2023-06-22T00:21:36;12.07;;;5.88;;
32445;SDS011;18899;50.748;7.102;2023-06-22T00:24:03;8.35;;;5.63;;
32445;SDS011;18899;50.748;7.102;2023-06-22T00:26:29;17.17;;;5.80;;
32445;SDS011;18899;50.748;7.102;2023-06-22T00:28:54;10.40;;;5.55;;
32445;SDS011;18899;50.748;7.102;2023-06-22T00:31:20;11.38;;;6.10;;
32445;SDS011;18899;50.748;7.102;2023-06-22T00:33:45;10.40;;;5.50;;
32445;SDS011;18899;50.748;7.102;2023-06-22T00:36:11;9.00;;;5.88;;
32445;SDS011;18899;50.748;7.102;2023-06-22T00:38:41;10.18;;;6.38;;
32445;SDS011;18899;50.748;7.102;2023-06-22T00:41:06;11.43;;;6.22;;
32445;SDS011;18899;50.748;7.102;2023-06-22T00:43:32;9.88;;;5.93;;
32445;SDS011;18899;50.748;7.102;2023-06-22T00:45:57;9.65;;;5.28;;
32445;SDS011;18899;50.748;7.102;2023-06-22T00:48:23;10.30;;;6.38;;
32445;SDS011;18899;50.748;7.102;2023-06-22T00:50:50;11.27;;;6.22;;
32445;SDS011;18899;50.748;7.102;2023-06-22T00:53:18;10.48;;;6.15;;
32445;SDS011;18899;50.748;7.102;2023-06-22T00:55:44;13.40;;;5.85;;
32445;SDS011;18899;50.748;7.102;2023-06-22T00:58:12;12.75;;;5.75;;
32445;SDS011;18899;50.748;7.102;2023-06-22T01:00:38;12.70;;;6.60;;
32445;SDS011;18899;50.748;7.102;2023-06-22T01:03:06;11.75;;;6.38;;
32445;SDS011;18899;50.748;7.102;2023-06-22T01:05:35;10.45;;;6.68;;
32445;SDS011;18899;50.748;7.102;2023-06-22T01:08:04;13.10;;;6.45;;
32445;SDS011;18899;50.748;7.102;2023-06-22T01:12:59;7.97;;;6.07;;
32445;SDS011;18899;50.748;7.102;2023-06-22T01:15:45;9.32;;;6.85;;
32445;SDS011;18899;50.748;7.102;2023-06-22T01:18:25;11.98;;;5.97;;
32445;SDS011;18899;50.748;7.102;2023-06-22T01:20:53;10.40;;;6.20;;
32445;SDS011;18899;50.748;7.102;2023-06-22T01:29:03;13.85;;;5.85;;
32445;SDS011;18899;50.748;7.102;2023-06-22T01:31:30;7.20;;;5.60;;
32445;SDS011;18899;50.748;7.102;2023-06-22T01:34:01;10.48;;;6.07;;
32445;SDS011;18899;50.748;7.102;2023-06-22T01:36:29;14.52;;;5.35;;
32445;SDS011;18899;50.748;7.102;2023-06-22T01:38:56;11.38;;;6.43;;
32445;SDS011;18899;50.748;7.102;2023-06-22T01:41:25;9.93;;;5.97;;
32445;SDS011;18899;50.748;7.102;2023-06-22T01:43:53;8.68;;;5.80;;
32445;SDS011;18899;50.748;7.102;2023-06-22T01:46:19;12.93;;;6.03;;
32445;SDS011;18899;50.748;7.102;2023-06-22T01:48:46;11.88;;;6.03;;
32445;SDS011;18899;50.748;7.102;2023-06-22T01:51:12;11.45;;;6.20;;
32445;SDS011;18899;50.748;7.102;2023-06-22T01:53:38;9.52;;;6.50;;
32445;SDS011;18899;50.748;7.102;2023-06-22T01:56:04;11.50;;;6.65;;
32445;SDS011;18899;50.748;7.102;2023-06-22T01:58:30;9.68;;;6.00;;
32445;SDS011;18899;50.748;7.102;2023-06-22T02:01:10;8.38;;;6.00;;
32445;SDS011;18899;50.748;7.102;2023-06-22T02:03:38;9.57;;;5.90;;
32445;SDS011;18899;50.748;7.102;2023-06-22T02:06:13;18.92;;;7.03;;
32445;SDS011;18899;50.748;7.102;2023-06-22T02:08:47;10.90;;;6.07;;
32445;SDS011;18899;50.748;7.102;2023-06-22T02:11:16;9.30;;;5.90;;
32445;SDS011;18899;50.748;7.102;2023-06-22T02:13:44;9.70;;;6.13;;
32445;SDS011;18899;50.748;7.102;2023-06-22T02:16:11;9.77;;;5.85;;
32445;SDS011;18899;50.748;7.102;2023-06-22T02:18:38;12.73;;;5.65;;
32445;SDS011;18899;50.748;7.102;2023-06-22T02:21:05;11.48;;;6.10;;
32445;SDS011;18899;50.748;7.102;2023-06-22T02:23:31;12.57;;;5.95;;
32445;SDS011;18899;50.748;7.102;2023-06-22T02:25:59;8.30;;;5.80;;
32445;SDS011;18899;50.748;7.102;2023-06-22T02:28:25;8.60;;;5.75;;
32445;SDS011;18899;50.748;7.102;2023-06-22T02:30:51;8.68;;;5.25;;
32445;SDS011;18899;50.748;7.102;2023-06-22T02:33:16;8.10;;;5.80;;
32445;SDS011;18899;50.748;7.102;2023-06-22T02:35:42;13.43;;;6.40;;
32445;SDS011;18899;50.748;7.102;2023-06-22T02:38:10;10.35;;;5.78;;
32445;SDS011;18899;50.748;7.102;2023-06-22T02:40:36;12.13;;;5.60;;
32445;SDS011;18899;50.748;7.102;2023-06-22T02:43:02;11.50;;;5.55;;
32445;SDS011;18899;50.748;7.102;2023-06-22T02:45:28;9.88;;;6.00;;
32445;SDS011;18899;50.748;7.102;2023-06-22T02:47:54;8.65;;;5.75;;
32445;SDS011;18899;50.748;7.102;2023-06-22T02:50:20;9.43;;;5.75;;
32445;SDS011;18899;50.748;7.102;2023-06-22T02:52:46;12.52;;;5.63;;
32445;SDS011;18899;50.748;7.102;2023-06-22T02:55:11;7.70;;;5.38;;
32445;SDS011;18899;50.748;7.102;2023-06-22T02:57:37;13.65;;;6.40;;
32445;SDS011;18899;50.748;7.102;2023-06-22T03:00:03;8.88;;;5.90;;
32445;SDS011;18899;50.748;7.102;2023-06-22T03:02:43;10.15;;;5.78;;
32445;SDS011;18899;50.748;7.102;2023-06-22T03:05:12;7.80;;;5.53;;
32445;SDS011;18899;50.748;7.102;2023-06-22T03:07:42;10.32;;;5.65;;
32445;SDS011;18899;50.748;7.102;2023-06-22T03:10:08;8.70;;;6.28;;
32445;SDS011;18899;50.748;7.102;2023-06-22T03:12:34;8.90;;;5.57;;
32445;SDS011;18899;50.748;7.102;2023-06-22T03:15:01;8.85;;;5.38;;
32445;SDS011;18899;50.748;7.102;2023-06-22T03:17:26;8.63;;;5.63;;
32445;SDS011;18899;50.748;7.102;2023-06-22T03:19:52;9.57;;;5.82;;
32445;SDS011;18899;50.748;7.102;2023-06-22T03:22:17;11.48;;;5.68;;
32445;SDS011;18899;50.748;7.102;2023-06-22T03:24:43;9.93;;;5.43;;
32445;SDS011;18899;50.748;7.102;2023-06-22T03:27:08;12.77;;;5.60;;
32445;SDS011;18899;50.748;7.102;2023-06-22T03:29:34;9.65;;;5.65;;
32445;SDS011;18899;50.748;7.102;2023-06-22T03:31:59;11.80;;;5.20;;
32445;SDS011;18899;50.748;7.102;2023-06-22T03:34:25;10.20;;;5.45;;
32445;SDS011;18899;50.748;7.102;2023-06-22T03:36:50;10.20;;;6.13;;
32445;SDS011;18899;50.748;7.102;2023-06-22T03:39:16;10.80;;;5.40;;
32445;SDS011;18899;50.748;7.102;2023-06-22T03:41:41;8.40;;;5.65;;
32445;SDS011;18899;50.748;7.102;2023-06-22T03:44:07;10.80;;;5.95;;
32445;SDS011;18899;50.748;7.102;2023-06-22T03:46:37;11.32;;;5.53;;
32445;SDS011;18899;50.748;7.102;2023-06-22T03:49:02;10.23;;;5.82;;
32445;SDS011;18899;50.748;7.102;2023-06-22T03:51:28;8.30;;;5.45;;
32445;SDS011;18899;50.748;7.102;2023-06-22T03:53:54;9.93;;;5.88;;
32445;SDS011;18899;50.748;7.102;2023-06-22T03:56:19;9.77;;;5.45;;
32445;SDS011;18899;50.748;7.102;2023-06-22T03:58:45;8.27;;;5.88;;
32445;SDS011;18899;50.748;7.102;2023-06-22T04:01:11;11.80;;;5.70;;
32445;SDS011;18899;50.748;7.102;2023-06-22T04:03:37;13.10;;;7.25;;
32445;SDS011;18899;50.748;7.102;2023-06-22T04:06:03;9.18;;;6.60;;
32445;SDS011;18899;50.748;7.102;2023-06-22T04:08:29;10.48;;;6.60;;
32445;SDS011;18899;50.748;7.102;2023-06-22T04:10:54;14.27;;;6.70;;
32445;SDS011;18899;50.748;7.102;2023-06-22T04:13:20;10.00;;;7.13;;
32445;SDS011;18899;50.748;7.102;2023-06-22T04:15:45;12.57;;;6.18;;
32445;SDS011;18899;50.748;7.102;2023-06-22T04:18:11;10.32;;;6.75;;
32445;SDS011;18899;50.748;7.102;2023-06-22T04:20:36;11.55;;;7.40;;
32445;SDS011;18899;50.748;7.102;2023-06-22T04:23:02;14.43;;;6.90;;
32445;SDS011;18899;50.748;7.102;2023-06-22T04:25:27;12.27;;;7.15;;
32445;SDS011;18899;50.748;7.102;2023-06-22T04:27:53;13.07;;;7.15;;
32445;SDS011;18899;50.748;7.102;2023-06-22T04:30:19;14.30;;;7.40;;
32445;SDS011;18899;50.748;7.102;2023-06-22T04:32:44;13.68;;;7.43;;
32445;SDS011;18899;50.748;7.102;2023-06-22T04:35:10;10.75;;;7.20;;
32445;SDS011;18899;50.748;7.102;2023-06-22T04:37:36;17.15;;;7.35;;
32445;SDS011;18899;50.748;7.102;2023-06-22T04:40:01;16.50;;;7.57;;
32445;SDS011;18899;50.748;7.102;2023-06-22T04:42:29;11.50;;;6.50;;
32445;SDS011;18899;50.748;7.102;2023-06-22T04:44:55;14.70;;;7.38;;
32445;SDS011;18899;50.748;7.102;2023-06-22T04:47:21;12.88;;;6.53;;
32445;SDS011;18899;50.748;7.102;2023-06-22T04:49:46;13.02;;;7.30;;
32445;SDS011;18899;50.748;7.102;2023-06-22T04:52:12;14.73;;;7.25;;
32445;SDS011;18899;50.748;7.102;2023-06-22T04:54:39;8.80;;;6.50;;
32445;SDS011;18899;50.748;7.102;2023-06-22T04:57:13;13.45;;;7.82;;
32445;SDS011;18899;50.748;7.102;2023-06-22T04:59:39;12.63;;;7.90;;
32445;SDS011;18899;50.748;7.102;2023-06-22T05:02:06;10.23;;;7.30;;
32445;SDS011;18899;50.748;7.102;2023-06-22T05:04:32;11.80;;;7.47;;
32445;SDS011;18899;50.748;7.102;2023-06-22T05:07:00;16.67;;;7.32;;
32445;SDS011;18899;50.748;7.102;2023-06-22T05:09:26;13.13;;;7.78;;
32445;SDS011;18899;50.748;7.102;2023-06-22T05:11:53;10.50;;;7.20;;
32445;SDS011;18899;50.748;7.102;2023-06-22T05:14:18;10.77;;;7.15;;
32445;SDS011;18899;50.748;7.102;2023-06-22T05:16:44;10.55;;;7.47;;
32445;SDS011;18899;50.748;7.102;2023-06-22T05:19:10;11.20;;;6.80;;
32445;SDS011;18899;50.748;7.102;2023-06-22T05:21:36;8.85;;;6.43;;
32445;SDS011;18899;50.748;7.102;2023-06-22T05:24:02;11.30;;;6.43;;
32445;SDS011;18899;50.748;7.102;2023-06-22T05:26:28;9.23;;;6.07;;
32445;SDS011;18899;50.748;7.102;2023-06-22T05:28:55;11.85;;;7.07;;
32445;SDS011;18899;50.748;7.102;2023-06-22T05:31:21;9.38;;;5.97;;
32445;SDS011;18899;50.748;7.102;2023-06-22T05:33:47;9.57;;;6.53;;
32445;SDS011;18899;50.748;7.102;2023-06-22T05:36:14;10.77;;;5.72;;
32445;SDS011;18899;50.748;7.102;2023-06-22T05:38:40;9.43;;;5.38;;
32445;SDS011;18899;50.748;7.102;2023-06-22T05:41:06;9.35;;;5.95;;
32445;SDS011;18899;50.748;7.102;2023-06-22T05:43:32;9.52;;;6.43;;
32445;SDS011;18899;50.748;7.102;2023-06-22T05:45:59;10.52;;;6.15;;
32445;SDS011;18899;50.748;7.102;2023-06-22T05:48:25;12.43;;;6.43;;
32445;SDS011;18899;50.748;7.102;2023-06-22T05:50:51;10.38;;;5.97;;
32445;SDS011;18899;50.748;7.102;2023-06-22T05:53:17;13.27;;;6.82;;
32445;SDS011;18899;50.748;7.102;2023-06-22T05:55:43;12.50;;;6.97;;
32445;SDS011;18899;50.748;7.102;2023-06-22T05:58:08;10.95;;;7.28;;
32445;SDS011;18899;50.748;7.102;2023-06-22T06:00:34;9.52;;;7.00;;
32445;SDS011;18899;50.748;7.102;2023-06-22T06:03:00;12.93;;;6.53;;
32445;SDS011;18899;50.748;7.102;2023-06-22T06:05:29;15.18;;;6.97;;
32445;SDS011;18899;50.748;7.102;2023-06-22T06:07:55;16.25;;;8.70;;
32445;SDS011;18899;50.748;7.102;2023-06-22T06:10:21;10.32;;;7.32;;
32445;SDS011;18899;50.748;7.102;2023-06-22T06:12:46;11.73;;;7.28;;
32445;SDS011;18899;50.748;7.102;2023-06-22T06:15:12;15.00;;;8.00;;
32445;SDS011;18899;50.748;7.102;2023-06-22T06:20:12;12.13;;;7.32;;
32445;SDS011;18899;50.748;7.102;2023-06-22T06:22:38;16.17;;;7.40;;
32445;SDS011;18899;50.748;7.102;2023-06-22T06:25:04;18.48;;;7.97;;
32445;SDS011;18899;50.748;7.102;2023-06-22T06:27:30;11.98;;;8.05;;
32445;SDS011;18899;50.748;7.102;2023-06-22T06:29:56;12.32;;;7.45;;
32445;SDS011;18899;50.748;7.102;2023-06-22T06:32:22;10.13;;;7.40;;
32445;SDS011;18899;50.748;7.102;2023-06-22T06:34:47;14.93;;;7.63;;
32445;SDS011;18899;50.748;7.102;2023-06-22T06:37:13;11.77;;;7.85;;
32445;SDS011;18899;50.748;7.102;2023-06-22T06:39:38;13.65;;;8.35;;
32445;SDS011;18899;50.748;7.102;2023-06-22T06:42:04;15.48;;;7.63;;
32445;SDS011;18899;50.748;7.102;2023-06-22T06:44:30;12.82;;;8.15;;
32445;SDS011;18899;50.748;7.102;2023-06-22T06:46:55;12.00;;;7.90;;
32445;SDS011;18899;50.748;7.102;2023-06-22T06:49:21;12.25;;;7.57;;
32445;SDS011;18899;50.748;7.102;2023-06-22T06:51:46;11.93;;;7.90;;
32445;SDS011;18899;50.748;7.102;2023-06-22T06:54:12;13.60;;;7.90;;
32445;SDS011;18899;50.748;7.102;2023-06-22T06:56:37;12.65;;;7.25;;
32445;SDS011;18899;50.748;7.102;2023-06-22T06:59:03;14.18;;;8.07;;
32445;SDS011;18899;50.748;7.102;2023-06-22T07:01:29;14.52;;;7.35;;
32445;SDS011;18899;50.748;7.102;2023-06-22T07:03:58;12.55;;;7.45;;
32445;SDS011;18899;50.748;7.102;2023-06-22T07:06:25;12.00;;;6.97;;
32445;SDS011;18899;50.748;7.102;2023-06-22T07:08:57;9.95;;;7.10;;
32445;SDS011;18899;50.748;7.102;2023-06-22T07:11:22;9.68;;;7.13;;
32445;SDS011;18899;50.748;7.102;2023-06-22T07:13:48;11.25;;;6.50;;
32445;SDS011;18899;50.748;7.102;2023-06-22T07:16:13;11.30;;;6.38;;
32445;SDS011;18899;50.748;7.102;2023-06-22T07:18:39;11.90;;;6.43;;
32445;SDS011;18899;50.748;7.102;2023-06-22T07:21:05;10.43;;;6.22;;
32445;SDS011;18899;50.748;7.102;2023-06-22T07:23:32;7.47;;;5.70;;
32445;SDS011;18899;50.748;7.102;2023-06-22T07:25:57;11.27;;;6.13;;
32445;SDS011;18899;50.748;7.102;2023-06-22T07:28:27;10.70;;;6.60;;
32445;SDS011;18899;50.748;7.102;2023-06-22T07:30:52;9.68;;;6.00;;
32445;SDS011;18899;50.748;7.102;2023-06-22T07:33:18;9.35;;;6.40;;
32445;SDS011;18899;50.748;7.102;2023-06-22T07:35:44;10.02;;;6.18;;
32445;SDS011;18899;50.748;7.102;2023-06-22T07:38:10;7.70;;;5.57;;
32445;SDS011;18899;50.748;7.102;2023-06-22T07:40:35;8.40;;;5.63;;
32445;SDS011;18899;50.748;7.102;2023-06-22T07:43:01;10.15;;;6.00;;
32445;SDS011;18899;50.748;7.102;2023-06-22T07:45:28;6.95;;;5.18;;
32445;SDS011;18899;50.748;7.102;2023-06-22T07:47:54;6.97;;;4.85;;
32445;SDS011;18899;50.748;7.102;2023-06-22T07:50:19;6.88;;;5.22;;
32445;SDS011;18899;50.748;7.102;2023-06-22T07:52:45;8.07;;;5.25;;
32445;SDS011;18899;50.748;7.102;2023-06-22T07:55:12;6.53;;;4.95;;
32445;SDS011;18899;50.748;7.102;2023-06-22T07:57:38;9.23;;;4.88;;
32445;SDS011;18899;50.748;7.102;2023-06-22T08:00:05;7.65;;;4.65;;
32445;SDS011;18899;50.748;7.102;2023-06-22T08:02:41;6.45;;;4.57;;
32445;SDS011;18899;50.748;7.102;2023-06-22T08:05:07;6.63;;;4.75;;
32445;SDS011;18899;50.748;7.102;2023-06-22T08:07:34;8.77;;;5.50;;
32445;SDS011;18899;50.748;7.102;2023-06-22T08:10:02;6.85;;;5.20;;
32445;SDS011;18899;50.748;7.102;2023-06-22T08:12:28;10.85;;;6.05;;
32445;SDS011;18899;50.748;7.102;2023-06-22T08:14:54;6.43;;;4.85;;
32445;SDS011;18899;50.748;7.102;2023-06-22T08:17:21;7.68;;;5.22;;
32445;SDS011;18899;50.748;7.102;2023-06-22T08:19:47;8.40;;;4.80;;
32445;SDS011;18899;50.748;7.102;2023-06-22T08:22:15;7.40;;;5.40;;
32445;SDS011;18899;50.748;7.102;2023-06-22T08:24:41;7.03;;;5.30;;
32445;SDS011;18899;50.748;7.102;2023-06-22T08:27:07;11.85;;;5.60;;
32445;SDS011;18899;50.748;7.102;2023-06-22T08:29:39;9.90;;;5.70;;
32445;SDS011;18899;50.748;7.102;2023-06-22T08:32:07;9.45;;;6.28;;
32445;SDS011;18899;50.748;7.102;2023-06-22T08:34:37;7.15;;;5.60;;
32445;SDS011;18899;50.748;7.102;2023-06-22T08:37:06;8.55;;;5.97;;
32445;SDS011;18899;50.748;7.102;2023-06-22T08:39:33;11.38;;;6.25;;
32445;SDS011;18899;50.748;7.102;2023-06-22T08:41:58;9.68;;;5.82;;
32445;SDS011;18899;50.748;7.102;2023-06-22T08:44:25;7.28;;;5.50;;
32445;SDS011;18899;50.748;7.102;2023-06-22T08:46:50;9.25;;;5.90;;
32445;SDS011;18899;50.748;7.102;2023-06-22T08:49:16;10.38;;;6.07;;
32445;SDS011;18899;50.748;7.102;2023-06-22T08:51:41;9.18;;;6.00;;
32445;SDS011;18899;50.748;7.102;2023-06-22T08:54:07;9.32;;;5.90;;
32445;SDS011;18899;50.748;7.102;2023-06-22T08:56:32;8.25;;;5.45;;
32445;SDS011;18899;50.748;7.102;2023-06-22T08:58:58;9.48;;;5.78;;
32445;SDS011;18899;50.748;7.102;2023-06-22T09:01:23;8.38;;;5.90;;
32445;SDS011;18899;50.748;7.102;2023-06-22T09:03:49;8.50;;;5.88;;
32445;SDS011;18899;50.748;7.102;2023-06-22T09:06:19;8.02;;;5.70;;
32445;SDS011;18899;50.748;7.102;2023-06-22T09:08:46;8.77;;;6.10;;
32445;SDS011;18899;50.748;7.102;2023-06-22T09:11:12;7.63;;;5.93;;
32445;SDS011;18899;50.748;7.102;2023-06-22T09:13:38;9.70;;;5.90;;
32445;SDS011;18899;50.748;7.102;2023-06-22T09:16:03;8.52;;;5.72;;
32445;SDS011;18899;50.748;7.102;2023-06-22T09:18:29;8.27;;;5.25;;
32445;SDS011;18899;50.748;7.102;2023-06-22T09:20:55;6.32;;;4.97;;
32445;SDS011;18899;50.748;7.102;2023-06-22T09:23:21;8.75;;;5.50;;
32445;SDS011;18899;50.748;7.102;2023-06-22T09:25:47;7.63;;;5.47;;
32445;SDS011;18899;50.748;7.102;2023-06-22T09:28:13;10.60;;;5.75;;
32445;SDS011;18899;50.748;7.102;2023-06-22T09:30:39;9.13;;;5.63;;
32445;SDS011;18899;50.748;7.102;2023-06-22T09:33:04;9.85;;;5.43;;
32445;SDS011;18899;50.748;7.102;2023-06-22T09:35:30;6.88;;;5.03;;
32445;SDS011;18899;50.748;7.102;2023-06-22T09:37:55;7.85;;;5.30;;
32445;SDS011;18899;50.748;7.102;2023-06-22T09:40:21;9.95;;;5.40;;
32445;SDS011;18899;50.748;7.102;2023-06-22T09:42:47;9.43;;;5.10;;
32445;SDS011;18899;50.748;7.102;2023-06-22T09:45:12;10.57;;;5.28;;
32445;SDS011;18899;50.748;7.102;2023-06-22T09:47:38;8.30;;;5.30;;
32445;SDS011;18899;50.748;7.102;2023-06-22T09:50:04;8.38;;;5.35;;
32445;SDS011;18899;50.748;7.102;2023-06-22T09:52:30;6.65;;;5.25;;
32445;SDS011;18899;50.748;7.102;2023-06-22T09:54:55;9.13;;;5.50;;
32445;SDS011;18899;50.748;7.102;2023-06-22T09:57:21;7.57;;;5.40;;
32445;SDS011;18899;50.748;7.102;2023-06-22T09:59:46;10.77;;;6.10;;
32445;SDS011;18899;50.748;7.102;2023-06-22T10:02:12;12.48;;;5.53;;
32445;SDS011;18899;50.748;7.102;2023-06-22T10:04:38;7.75;;;5.40;;
32445;SDS011;18899;50.748;7.102;2023-06-22T10:07:05;8.95;;;5.88;;
32445;SDS011;18899;50.748;7.102;2023-06-22T10:09:31;11.23;;;6.43;;
32445;SDS011;18899;50.748;7.102;2023-06-22T10:11:56;8.85;;;6.25;;
32445;SDS011;18899;50.748;7.102;2023-06-22T10:14:22;8.70;;;6.20;;
32445;SDS011;18899;50.748;7.102;2023-06-22T10:16:49;8.65;;;6.28;;
32445;SDS011;18899;50.748;7.102;2023-06-22T10:19:16;10.38;;;6.25;;
32445;SDS011;18899;50.748;7.102;2023-06-22T10:21:41;9.32;;;6.53;;
32445;SDS011;18899;50.748;7.102;2023-06-22T10:24:07;8.05;;;5.85;;
32445;SDS011;18899;50.748;7.102;2023-06-22T10:26:33;10.13;;;6.13;;
32445;SDS011;18899;50.748;7.102;2023-06-22T10:29:00;9.77;;;6.05;;
32445;SDS011;18899;50.748;7.102;2023-06-22T10:31:27;9.20;;;6.43;;
32445;SDS011;18899;50.748;7.102;2023-06-22T10:33:53;10.52;;;6.78;;
32445;SDS011;18899;50.748;7.102;2023-06-22T10:36:19;11.75;;;7.18;;
32445;SDS011;18899;50.748;7.102;2023-06-22T10:38:45;10.02;;;6.90;;
32445;SDS011;18899;50.748;7.102;2023-06-22T10:41:12;11.88;;;7.20;;
32445;SDS011;18899;50.748;7.102;2023-06-22T10:43:38;13.57;;;7.85;;
32445;SDS011;18899;50.748;7.102;2023-06-22T10:46:03;13.35;;;8.75;;
32445;SDS011;18899;50.748;7.102;2023-06-22T10:48:29;19.55;;;9.38;;
32445;SDS011;18899;50.748;7.102;2023-06-22T10:50:54;15.35;;;9.57;;
32445;SDS011;18899;50.748;7.102;2023-06-22T10:53:20;14.95;;;9.90;;
32445;SDS011;18899;50.748;7.102;2023-06-22T10:55:46;20.20;;;11.18;;
32445;SDS011;18899;50.748;7.102;2023-06-22T10:58:12;16.33;;;10.35;;
32445;SDS011;18899;50.748;7.102;2023-06-22T11:00:37;21.45;;;12.02;;
32445;SDS011;18899;50.748;7.102;2023-06-22T11:03:03;17.70;;;12.27;;
32445;SDS011;18899;50.748;7.102;2023-06-22T11:05:28;17.90;;;12.15;;
32445;SDS011;18899;50.748;7.102;2023-06-22T11:07:54;23.27;;;12.93;;
32445;SDS011;18899;50.748;7.102;2023-06-22T11:10:19;22.42;;;13.70;;
32445;SDS011;18899;50.748;7.102;2023-06-22T11:12:45;26.60;;;13.90;;
32445;SDS011;18899;50.748;7.102;2023-06-22T11:15:11;25.63;;;14.73;;
32445;SDS011;18899;50.748;7.102;2023-06-22T11:17:36;22.15;;;14.00;;
32445;SDS011;18899;50.748;7.102;2023-06-22T11:20:02;23.00;;;14.00;;
32445;SDS011;18899;50.748;7.102;2023-06-22T11:22:34;23.63;;;13.95;;
32445;SDS011;18899;50.748;7.102;2023-06-22T11:25:00;22.15;;;14.38;;
32445;SDS011;18899;50.748;7.102;2023-06-22T11:27:26;21.08;;;14.63;;
32445;SDS011;18899;50.748;7.102;2023-06-22T11:29:51;23.10;;;15.65;;
32445;SDS011;18899;50.748;7.102;2023-06-22T11:32:18;34.13;;;15.80;;
32445;SDS011;18899;50.748;7.102;2023-06-22T11:34:43;24.02;;;15.73;;
32445;SDS011;18899;50.748;7.102;2023-06-22T11:37:09;22.92;;;14.18;;
32445;SDS011;18899;50.748;7.102;2023-06-22T11:39:34;20.80;;;14.73;;
32445;SDS011;18899;50.748;7.102;2023-06-22T11:42:00;30.00;;;15.77;;
32445;SDS011;18899;50.748;7.102;2023-06-22T11:44:25;21.60;;;15.98;;
32445;SDS011;18899;50.748;7.102;2023-06-22T11:46:51;21.85;;;14.90;;
32445;SDS011;18899;50.748;7.102;2023-06-22T11:49:17;20.02;;;14.35;;
32445;SDS011;18899;50.748;7.102;2023-06-22T11:51:42;16.40;;;12.18;;
32445;SDS011;18899;50.748;7.102;2023-06-22T11:54:08;15.02;;;10.15;;
32445;SDS011;18899;50.748;7.102;2023-06-22T11:56:33;15.10;;;10.80;;
32445;SDS011;18899;50.748;7.102;2023-06-22T11:58:59;14.23;;;10.00;;
32445;SDS011;18899;50.748;7.102;2023-06-22T12:01:24;15.23;;;10.23;;
32445;SDS011;18899;50.748;7.102;2023-06-22T12:03:50;15.82;;;10.32;;
32445;SDS011;18899;50.748;7.102;2023-06-22T12:06:15;13.93;;;10.10;;
32445;SDS011;18899;50.748;7.102;2023-06-22T12:08:41;16.98;;;10.43;;
32445;SDS011;18899;50.748;7.102;2023-06-22T12:11:07;14.38;;;10.65;;
32445;SDS011;18899;50.748;7.102;2023-06-22T12:13:32;18.05;;;10.60;;
32445;SDS011;18899;50.748;7.102;2023-06-22T12:15:58;14.30;;;9.57;;
32445;SDS011;18899;50.748;7.102;2023-06-22T12:18:23;11.73;;;9.25;;
32445;SDS011;18899;50.748;7.102;2023-06-22T12:20:49;13.77;;;8.57;;
32445;SDS011;18899;50.748;7.102;2023-06-22T12:23:15;15.63;;;9.20;;
32445;SDS011;18899;50.748;7.102;2023-06-22T12:25:40;13.95;;;8.25;;
32445;SDS011;18899;50.748;7.102;2023-06-22T12:28:06;13.23;;;8.05;;
32445;SDS011;18899;50.748;7.102;2023-06-22T12:30:34;11.65;;;8.43;;
32445;SDS011;18899;50.748;7.102;2023-06-22T12:33:00;9.57;;;6.75;;
32445;SDS011;18899;50.748;7.102;2023-06-22T12:35:25;9.63;;;6.50;;
32445;SDS011;18899;50.748;7.102;2023-06-22T12:37:51;7.63;;;5.72;;
32445;SDS011;18899;50.748;7.102;2023-06-22T12:40:17;7.35;;;4.57;;
32445;SDS011;18899;50.748;7.102;2023-06-22T12:42:44;11.65;;;4.53;;
32445;SDS011;18899;50.748;7.102;2023-06-22T12:45:10;5.65;;;4.13;;
32445;SDS011;18899;50.748;7.102;2023-06-22T12:47:35;8.07;;;4.90;;
32445;SDS011;18899;50.748;7.102;2023-06-22T12:50:01;6.65;;;4.43;;
32445;SDS011;18899;50.748;7.102;2023-06-22T12:52:27;7.82;;;4.40;;
32445;SDS011;18899;50.748;7.102;2023-06-22T12:54:52;7.55;;;4.57;;
32445;SDS011;18899;50.748;7.102;2023-06-22T12:57:19;7.50;;;4.43;;
32445;SDS011;18899;50.748;7.102;2023-06-22T12:59:44;5.88;;;4.32;;
32445;SDS011;18899;50.748;7.102;2023-06-22T13:02:10;6.40;;;5.03;;
32445;SDS011;18899;50.748;7.102;2023-06-22T13:04:36;5.35;;;4.32;;
32445;SDS011;18899;50.748;7.102;2023-06-22T13:07:01;6.85;;;4.28;;
32445;SDS011;18899;50.748;7.102;2023-06-22T13:09:27;7.03;;;4.72;;
32445;SDS011;18899;50.748;7.102;2023-06-22T13:11:53;7.63;;;4.60;;
32445;SDS011;18899;50.748;7.102;2023-06-22T13:14:18;5.97;;;4.10;;
32445;SDS011;18899;50.748;7.102;2023-06-22T13:16:44;6.38;;;4.10;;
32445;SDS011;18899;50.748;7.102;2023-06-22T13:19:10;8.25;;;4.25;;
32445;SDS011;18899;50.748;7.102;2023-06-22T13:21:35;4.43;;;3.30;;
32445;SDS011;18899;50.748;7.102;2023-06-22T13:24:01;3.55;;;2.58;;
32445;SDS011;18899;50.748;7.102;2023-06-22T13:26:26;3.33;;;2.08;;
32445;SDS011;18899;50.748;7.102;2023-06-22T13:28:53;3.35;;;2.55;;
32445;SDS011;18899;50.748;7.102;2023-06-22T13:31:19;5.05;;;2.05;;
32445;SDS011;18899;50.748;7.102;2023-06-22T13:33:44;3.47;;;2.28;;
32445;SDS011;18899;50.748;7.102;2023-06-22T13:36:12;2.45;;;2.00;;
32445;SDS011;18899;50.748;7.102;2023-06-22T13:38:38;4.28;;;2.00;;
32445;SDS011;18899;50.748;7.102;2023-06-22T13:41:04;5.03;;;2.50;;
32445;SDS011;18899;50.748;7.102;2023-06-22T13:43:30;3.70;;;2.40;;
32445;SDS011;18899;50.748;7.102;2023-06-22T13:45:56;4.07;;;2.88;;
32445;SDS011;18899;50.748;7.102;2023-06-22T13:48:22;8.68;;;3.28;;
32445;SDS011;18899;50.748;7.102;2023-06-22T13:50:48;6.03;;;3.67;;
32445;SDS011;18899;50.748;7.102;2023-06-22T13:53:14;6.63;;;3.47;;
32445;SDS011;18899;50.748;7.102;2023-06-22T13:55:39;14.13;;;3.80;;
32445;SDS011;18899;50.748;7.102;2023-06-22T13:58:05;6.65;;;3.53;;
32445;SDS011;18899;50.748;7.102;2023-06-22T14:00:30;6.63;;;3.97;;
32445;SDS011;18899;50.748;7.102;2023-06-22T14:02:56;7.22;;;4.32;;
32445;SDS011;18899;50.748;7.102;2023-06-22T14:05:21;7.30;;;4.20;;
32445;SDS011;18899;50.748;7.102;2023-06-22T14:07:47;7.18;;;4.45;;
32445;SDS011;18899;50.748;7.102;2023-06-22T14:10:12;6.35;;;4.10;;
32445;SDS011;18899;50.748;7.102;2023-06-22T14:12:38;8.40;;;4.25;;
32445;SDS011;18899;50.748;7.102;2023-06-22T14:15:04;6.10;;;3.60;;
32445;SDS011;18899;50.748;7.102;2023-06-22T14:17:30;7.20;;;4.05;;
32445;SDS011;18899;50.748;7.102;2023-06-22T14:19:55;5.00;;;3.33;;
32445;SDS011;18899;50.748;7.102;2023-06-22T14:22:21;5.78;;;3.55;;
32445;SDS011;18899;50.748;7.102;2023-06-22T14:24:47;7.93;;;3.65;;
32445;SDS011;18899;50.748;7.102;2023-06-22T14:27:14;4.53;;;3.22;;
32445;SDS011;18899;50.748;7.102;2023-06-22T14:29:40;10.63;;;4.03;;
32445;SDS011;18899;50.748;7.102;2023-06-22T14:32:06;10.07;;;4.40;;
32445;SDS011;18899;50.748;7.102;2023-06-22T14:34:32;7.45;;;4.20;;
32445;SDS011;18899;50.748;7.102;2023-06-22T14:37:01;6.95;;;4.57;;
32445;SDS011;18899;50.748;7.102;2023-06-22T14:39:27;8.07;;;4.75;;
32445;SDS011;18899;50.748;7.102;2023-06-22T14:41:52;18.75;;;6.38;;
32445;SDS011;18899;50.748;7.102;2023-06-22T14:44:18;18.83;;;6.15;;